PDA5625 EFHK-UKBB
Flight info
| Callsign | PDA5625 |
|---|---|
| Flight time | 2h 20m |
| Altitude | 34000 |
| Route | KOIVU Y123 LARTI DCT LUTAL P870 BERIL/N0454F330 DCT BOKSU/N0453F340 M985 SUWGI M857 XESNA/N0454F330 DCT TOLPA/K0839F330 M70 SLV |
| Aircraft | A321/M-SDE3FGHIJ4RWY/LB1 |
Departure
| Time | 2026-05-07 21:14 |
|---|---|
| Airport | Helsinki Vantaa Airport (EFHK) |
Arrival
| Time | 2026-05-07 23:34 |
|---|---|
| Airport | Boryspil International Airport (UKBB) |
| Time | Latitude | Longitude | Altitude | Speed | Heading |
|---|---|---|---|---|---|
| 2026-05-07 20:38 | 60.31504 | 24.95725 | 166 ft | 0 kts | 137° |
| 2026-05-07 20:54 | 60.31522 | 24.95693 | 166 ft | 4 kts | 137° |
| 2026-05-07 20:54 | 60.31541 | 24.95657 | 166 ft | 4 kts | 128° |
| 2026-05-07 20:55 | 60.31554 | 24.95611 | 166 ft | 4 kts | 95° |
| 2026-05-07 20:55 | 60.31549 | 24.95567 | 166 ft | 2 kts | 48° |
| 2026-05-07 20:55 | 60.31548 | 24.95565 | 166 ft | 0 kts | 47° |
| 2026-05-07 21:04 | 60.31553 | 24.95576 | 166 ft | 3 kts | 47° |
| 2026-05-07 21:04 | 60.31574 | 24.95623 | 166 ft | 6 kts | 47° |
| 2026-05-07 21:04 | 60.31607 | 24.95682 | 166 ft | 7 kts | 29° |
| 2026-05-07 21:04 | 60.31658 | 24.95751 | 166 ft | 11 kts | 45° |
| 2026-05-07 21:05 | 60.31714 | 24.95865 | 166 ft | 11 kts | 47° |
| 2026-05-07 21:05 | 60.31761 | 24.95972 | 166 ft | 10 kts | 48° |
| 2026-05-07 21:05 | 60.31766 | 24.95983 | 166 ft | 1 kts | 48° |
| 2026-05-07 21:05 | 60.31785 | 24.96026 | 166 ft | 7 kts | 49° |
| 2026-05-07 21:06 | 60.31836 | 24.96130 | 166 ft | 13 kts | 33° |
| 2026-05-07 21:06 | 60.31925 | 24.96033 | 168 ft | 17 kts | 318° |
| 2026-05-07 21:06 | 60.31998 | 24.95899 | 172 ft | 12 kts | 317° |
| 2026-05-07 21:06 | 60.32060 | 24.95784 | 174 ft | 15 kts | 317° |
| 2026-05-07 21:07 | 60.32159 | 24.95601 | 173 ft | 21 kts | 317° |
| 2026-05-07 21:07 | 60.32258 | 24.95419 | 175 ft | 18 kts | 317° |
| 2026-05-07 21:07 | 60.32331 | 24.95289 | 177 ft | 12 kts | 327° |
| 2026-05-07 21:07 | 60.32398 | 24.95237 | 178 ft | 8 kts | 340° |
| 2026-05-07 21:08 | 60.32446 | 24.95205 | 179 ft | 6 kts | 342° |
| 2026-05-07 21:09 | 60.32649 | 24.95073 | 180 ft | 15 kts | 342° |
| 2026-05-07 21:09 | 60.32751 | 24.95006 | 178 ft | 16 kts | 342° |
| 2026-05-07 21:09 | 60.32858 | 24.94936 | 175 ft | 15 kts | 341° |
| 2026-05-07 21:09 | 60.32938 | 24.94829 | 177 ft | 12 kts | 317° |
| 2026-05-07 21:10 | 60.32993 | 24.94727 | 179 ft | 9 kts | 317° |
| 2026-05-07 21:10 | 60.33008 | 24.94700 | 180 ft | 0 kts | 317° |
| 2026-05-07 21:10 | 60.33023 | 24.94672 | 181 ft | 3 kts | 317° |
| 2026-05-07 21:10 | 60.33030 | 24.94660 | 182 ft | 2 kts | 317° |
| 2026-05-07 21:11 | 60.33059 | 24.94606 | 188 ft | 0 kts | 317° |
| 2026-05-07 21:11 | 60.33100 | 24.94529 | 195 ft | 7 kts | 317° |
| 2026-05-07 21:12 | 60.33120 | 24.94464 | 196 ft | 7 kts | 287° |
| 2026-05-07 21:12 | 60.33094 | 24.94346 | 188 ft | 13 kts | 229° |
| 2026-05-07 21:12 | 60.33076 | 24.94304 | 197 ft | 0 kts | 228° |
| 2026-05-07 21:13 | 60.33063 | 24.94275 | 194 ft | 15 kts | 227° |
| 2026-05-07 21:13 | 60.32793 | 24.93678 | 181 ft | 97 kts | 227° |
| 2026-05-07 21:13 | 60.32181 | 24.92338 | 165 ft | 160 kts | 227° |
| 2026-05-07 21:13 | 60.31357 | 24.90538 | 523 ft | 182 kts | 229° |
| 2026-05-07 21:14 | 60.30473 | 24.88581 | 1163 ft | 194 kts | 231° |
| 2026-05-07 21:14 | 60.29564 | 24.86537 | 1854 ft | 201 kts | 231° |
| 2026-05-07 21:14 | 60.28394 | 24.85032 | 2530 ft | 205 kts | 196° |
| 2026-05-07 21:14 | 60.26991 | 24.84491 | 3075 ft | 204 kts | 192° |
| 2026-05-07 21:15 | 60.25562 | 24.83922 | 3389 ft | 218 kts | 193° |
| 2026-05-07 21:15 | 60.24006 | 24.83275 | 3529 ft | 239 kts | 193° |
| 2026-05-07 21:15 | 60.22299 | 24.82556 | 3661 ft | 264 kts | 193° |
| 2026-05-07 21:15 | 60.20456 | 24.81775 | 4223 ft | 273 kts | 193° |
| 2026-05-07 21:16 | 60.18601 | 24.80988 | 5018 ft | 274 kts | 193° |
| 2026-05-07 21:16 | 60.16723 | 24.80192 | 5781 ft | 275 kts | 193° |
| 2026-05-07 21:16 | 60.14850 | 24.79395 | 6580 ft | 275 kts | 193° |
| 2026-05-07 21:16 | 60.12972 | 24.78598 | 7305 ft | 277 kts | 193° |
| 2026-05-07 21:17 | 60.11078 | 24.77794 | 8000 ft | 280 kts | 194° |
| 2026-05-07 21:17 | 60.09171 | 24.76983 | 8682 ft | 283 kts | 194° |
| 2026-05-07 21:17 | 60.07233 | 24.76155 | 9364 ft | 286 kts | 195° |
| 2026-05-07 21:17 | 60.05279 | 24.75320 | 10039 ft | 289 kts | 195° |
| 2026-05-07 21:18 | 60.03288 | 24.74470 | 10435 ft | 301 kts | 195° |
| 2026-05-07 21:18 | 60.01170 | 24.73560 | 10569 ft | 321 kts | 195° |
| 2026-05-07 21:18 | 59.98915 | 24.72591 | 10702 ft | 340 kts | 195° |
| 2026-05-07 21:18 | 59.96540 | 24.71578 | 10831 ft | 358 kts | 195° |
| 2026-05-07 21:19 | 59.94046 | 24.70520 | 10961 ft | 374 kts | 195° |
| 2026-05-07 21:19 | 59.91470 | 24.69438 | 11325 ft | 381 kts | 195° |
| 2026-05-07 21:19 | 59.88858 | 24.68350 | 11787 ft | 385 kts | 195° |
| 2026-05-07 21:19 | 59.86224 | 24.67261 | 12280 ft | 388 kts | 195° |
| 2026-05-07 21:20 | 59.83572 | 24.66156 | 12776 ft | 391 kts | 196° |
| 2026-05-07 21:20 | 59.80919 | 24.64973 | 13262 ft | 393 kts | 197° |
| 2026-05-07 21:20 | 59.78254 | 24.63717 | 13739 ft | 395 kts | 198° |
| 2026-05-07 21:20 | 59.75572 | 24.62419 | 14170 ft | 397 kts | 198° |
| 2026-05-07 21:21 | 59.72887 | 24.61113 | 14569 ft | 399 kts | 198° |
| 2026-05-07 21:21 | 59.70187 | 24.59812 | 14961 ft | 400 kts | 198° |
| 2026-05-07 21:21 | 59.67473 | 24.58520 | 15355 ft | 402 kts | 198° |
| 2026-05-07 21:21 | 59.64741 | 24.57285 | 15740 ft | 404 kts | 197° |
| 2026-05-07 21:22 | 59.61979 | 24.56152 | 16124 ft | 406 kts | 197° |
| 2026-05-07 21:22 | 59.59199 | 24.55080 | 16472 ft | 408 kts | 195° |
| 2026-05-07 21:22 | 59.56400 | 24.54026 | 16859 ft | 410 kts | 196° |
| 2026-05-07 21:22 | 59.53593 | 24.52963 | 17249 ft | 412 kts | 196° |
| 2026-05-07 21:23 | 59.50781 | 24.51885 | 17641 ft | 413 kts | 196° |
| 2026-05-07 21:23 | 59.47951 | 24.50787 | 18040 ft | 415 kts | 197° |
| 2026-05-07 21:23 | 59.45115 | 24.49674 | 18443 ft | 417 kts | 197° |
| 2026-05-07 21:23 | 59.42264 | 24.48552 | 18785 ft | 418 kts | 197° |
| 2026-05-07 21:24 | 59.39408 | 24.47427 | 19143 ft | 420 kts | 197° |
| 2026-05-07 21:24 | 59.36539 | 24.46298 | 19513 ft | 421 kts | 197° |
| 2026-05-07 21:24 | 59.33658 | 24.45165 | 19859 ft | 423 kts | 197° |
| 2026-05-07 21:24 | 59.30806 | 24.44050 | 20204 ft | 425 kts | 197° |
| 2026-05-07 21:25 | 59.27864 | 24.42908 | 20557 ft | 426 kts | 197° |
| 2026-05-07 21:25 | 59.24983 | 24.41795 | 20883 ft | 428 kts | 197° |
| 2026-05-07 21:25 | 59.22058 | 24.40667 | 21216 ft | 430 kts | 197° |
| 2026-05-07 21:25 | 59.19119 | 24.39536 | 21549 ft | 431 kts | 197° |
| 2026-05-07 21:26 | 59.16172 | 24.38402 | 21867 ft | 433 kts | 197° |
| 2026-05-07 21:26 | 59.13444 | 24.37352 | 22179 ft | 434 kts | 197° |
| 2026-05-07 21:26 | 59.10461 | 24.36200 | 22501 ft | 436 kts | 197° |
| 2026-05-07 21:26 | 59.07506 | 24.35058 | 22848 ft | 437 kts | 197° |
| 2026-05-07 21:27 | 59.04499 | 24.33900 | 23182 ft | 438 kts | 197° |
| 2026-05-07 21:27 | 59.01500 | 24.32754 | 23463 ft | 440 kts | 197° |
| 2026-05-07 21:27 | 58.98520 | 24.31620 | 23762 ft | 442 kts | 197° |
| 2026-05-07 21:27 | 58.95471 | 24.30460 | 24021 ft | 443 kts | 197° |
| 2026-05-07 21:28 | 58.92434 | 24.29302 | 24278 ft | 444 kts | 197° |
| 2026-05-07 21:28 | 58.89402 | 24.28150 | 24517 ft | 446 kts | 197° |
| 2026-05-07 21:28 | 58.86442 | 24.27028 | 24742 ft | 447 kts | 197° |
| 2026-05-07 21:28 | 58.83301 | 24.25838 | 24965 ft | 448 kts | 197° |
| 2026-05-07 21:29 | 58.80236 | 24.24681 | 25184 ft | 449 kts | 197° |
| 2026-05-07 21:29 | 58.77166 | 24.23523 | 25381 ft | 450 kts | 197° |
| 2026-05-07 21:29 | 58.74096 | 24.22364 | 25548 ft | 451 kts | 196° |
| 2026-05-07 21:29 | 58.71014 | 24.21202 | 25726 ft | 452 kts | 196° |
| 2026-05-07 21:30 | 58.67919 | 24.20041 | 25919 ft | 453 kts | 196° |
| 2026-05-07 21:30 | 58.64837 | 24.18892 | 26175 ft | 451 kts | 196° |
| 2026-05-07 21:30 | 58.61754 | 24.17742 | 26430 ft | 450 kts | 196° |
| 2026-05-07 21:30 | 58.58684 | 24.16600 | 26679 ft | 450 kts | 196° |
| 2026-05-07 21:31 | 58.55615 | 24.15460 | 26934 ft | 449 kts | 196° |
| 2026-05-07 21:31 | 58.52551 | 24.14320 | 27173 ft | 448 kts | 196° |
| 2026-05-07 21:31 | 58.49496 | 24.13184 | 27417 ft | 447 kts | 196° |
| 2026-05-07 21:31 | 58.46440 | 24.12052 | 27622 ft | 447 kts | 195° |
| 2026-05-07 21:32 | 58.43390 | 24.10924 | 27832 ft | 447 kts | 196° |
| 2026-05-07 21:32 | 58.40334 | 24.09793 | 28057 ft | 447 kts | 196° |
| 2026-05-07 21:32 | 58.37290 | 24.08668 | 28293 ft | 446 kts | 196° |
| 2026-05-07 21:32 | 58.34245 | 24.07547 | 28531 ft | 445 kts | 195° |
| 2026-05-07 21:33 | 58.31202 | 24.06432 | 28766 ft | 445 kts | 196° |
| 2026-05-07 21:33 | 58.28164 | 24.05319 | 29003 ft | 444 kts | 196° |
| 2026-05-07 21:33 | 58.25130 | 24.04214 | 29237 ft | 444 kts | 195° |
| 2026-05-07 21:33 | 58.22102 | 24.03113 | 29469 ft | 443 kts | 196° |
| 2026-05-07 21:34 | 58.19077 | 24.02010 | 29702 ft | 442 kts | 196° |
| 2026-05-07 21:34 | 58.17073 | 24.01279 | 29802 ft | 443 kts | 195° |
| 2026-05-07 21:34 | 58.14044 | 24.00176 | 29971 ft | 443 kts | 195° |
| 2026-05-07 21:34 | 58.11018 | 23.99072 | 30164 ft | 443 kts | 195° |
| 2026-05-07 21:35 | 58.07990 | 23.97970 | 30356 ft | 443 kts | 195° |
| 2026-05-07 21:35 | 58.04967 | 23.96872 | 30506 ft | 442 kts | 195° |
| 2026-05-07 21:35 | 58.01960 | 23.95790 | 30837 ft | 437 kts | 195° |
| 2026-05-07 21:35 | 57.98985 | 23.94727 | 31182 ft | 433 kts | 196° |
| 2026-05-07 21:36 | 57.96034 | 23.93677 | 31439 ft | 431 kts | 196° |
| 2026-05-07 21:36 | 57.93097 | 23.92628 | 31656 ft | 429 kts | 196° |
| 2026-05-07 21:36 | 57.90163 | 23.91574 | 31838 ft | 428 kts | 196° |
| 2026-05-07 21:36 | 57.87244 | 23.90541 | 32128 ft | 425 kts | 196° |
| 2026-05-07 21:37 | 57.84344 | 23.89559 | 32387 ft | 423 kts | 195° |
| 2026-05-07 21:37 | 57.81447 | 23.88606 | 32605 ft | 422 kts | 195° |
| 2026-05-07 21:37 | 57.78553 | 23.87664 | 32800 ft | 422 kts | 195° |
| 2026-05-07 21:37 | 57.75658 | 23.86723 | 32990 ft | 421 kts | 195° |
| 2026-05-07 21:38 | 57.72773 | 23.85785 | 33176 ft | 421 kts | 195° |
| 2026-05-07 21:38 | 57.69891 | 23.84844 | 33370 ft | 420 kts | 195° |
| 2026-05-07 21:38 | 57.67014 | 23.83905 | 33548 ft | 420 kts | 195° |
| 2026-05-07 21:38 | 57.64137 | 23.82967 | 33724 ft | 419 kts | 195° |
| 2026-05-07 21:39 | 57.61264 | 23.82031 | 33887 ft | 419 kts | 195° |
| 2026-05-07 21:39 | 57.58400 | 23.81102 | 34083 ft | 418 kts | 195° |
| 2026-05-07 21:39 | 57.52683 | 23.79248 | 34129 ft | 416 kts | 195° |
| 2026-05-07 21:40 | 57.46975 | 23.77396 | 34127 ft | 416 kts | 195° |
| 2026-05-07 21:40 | 57.41269 | 23.75566 | 34128 ft | 416 kts | 195° |
| 2026-05-07 21:41 | 57.35570 | 23.73720 | 34128 ft | 416 kts | 195° |
| 2026-05-07 21:41 | 57.29873 | 23.71882 | 34101 ft | 415 kts | 195° |
| 2026-05-07 21:42 | 57.24183 | 23.70062 | 34114 ft | 415 kts | 195° |
| 2026-05-07 21:42 | 57.18503 | 23.68250 | 34108 ft | 414 kts | 195° |
| 2026-05-07 21:43 | 57.12857 | 23.66450 | 34106 ft | 414 kts | 195° |
| 2026-05-07 21:43 | 57.07137 | 23.64636 | 34113 ft | 414 kts | 195° |
| 2026-05-07 21:44 | 57.01499 | 23.62859 | 34098 ft | 414 kts | 195° |
| 2026-05-07 21:44 | 56.95829 | 23.61077 | 34110 ft | 414 kts | 195° |
| 2026-05-07 21:45 | 56.90149 | 23.59291 | 34122 ft | 414 kts | 195° |
| 2026-05-07 21:45 | 56.84465 | 23.57508 | 34125 ft | 414 kts | 195° |
| 2026-05-07 21:46 | 56.78778 | 23.55732 | 34114 ft | 415 kts | 195° |
| 2026-05-07 21:46 | 56.73094 | 23.53967 | 34130 ft | 414 kts | 194° |
| 2026-05-07 21:47 | 56.67607 | 23.52260 | 34130 ft | 414 kts | 194° |
| 2026-05-07 21:47 | 56.61934 | 23.50505 | 34137 ft | 414 kts | 194° |
| 2026-05-07 21:48 | 56.56267 | 23.48764 | 34138 ft | 413 kts | 194° |
| 2026-05-07 21:48 | 56.50593 | 23.47020 | 34142 ft | 413 kts | 194° |
| 2026-05-07 21:49 | 56.44922 | 23.45275 | 34146 ft | 413 kts | 194° |
| 2026-05-07 21:49 | 56.39248 | 23.43538 | 34149 ft | 413 kts | 194° |
| 2026-05-07 21:50 | 56.33563 | 23.41938 | 34153 ft | 415 kts | 192° |
| 2026-05-07 21:50 | 56.27807 | 23.40862 | 34146 ft | 416 kts | 190° |
| 2026-05-07 21:51 | 56.22037 | 23.39928 | 34135 ft | 416 kts | 190° |
| 2026-05-07 21:51 | 56.16291 | 23.38913 | 34147 ft | 414 kts | 191° |
| 2026-05-07 21:52 | 56.10605 | 23.37846 | 34132 ft | 414 kts | 191° |
| 2026-05-07 21:52 | 56.04892 | 23.36769 | 34133 ft | 412 kts | 191° |
| 2026-05-07 21:53 | 55.99194 | 23.35703 | 34134 ft | 411 kts | 191° |
| 2026-05-07 21:53 | 55.93495 | 23.34660 | 34130 ft | 411 kts | 190° |
| 2026-05-07 21:54 | 55.87827 | 23.33622 | 34132 ft | 409 kts | 190° |
| 2026-05-07 21:54 | 55.82170 | 23.32587 | 34136 ft | 409 kts | 190° |
| 2026-05-07 21:55 | 55.76517 | 23.31548 | 34132 ft | 408 kts | 190° |
| 2026-05-07 21:55 | 55.70871 | 23.30521 | 34132 ft | 408 kts | 190° |
| 2026-05-07 21:56 | 55.65231 | 23.29502 | 34119 ft | 407 kts | 190° |
| 2026-05-07 21:56 | 55.59587 | 23.28481 | 34128 ft | 407 kts | 190° |
| 2026-05-07 21:57 | 55.53952 | 23.27461 | 34124 ft | 407 kts | 189° |
| 2026-05-07 21:57 | 55.48324 | 23.26452 | 34121 ft | 407 kts | 189° |
| 2026-05-07 21:58 | 55.42690 | 23.25442 | 34114 ft | 407 kts | 189° |
| 2026-05-07 21:58 | 55.37060 | 23.24429 | 34104 ft | 407 kts | 189° |
| 2026-05-07 21:59 | 55.32799 | 23.23663 | 34106 ft | 407 kts | 189° |
| 2026-05-07 22:13 | 55.27977 | 23.22807 | 34112 ft | 407 kts | 189° |
| 2026-05-07 22:13 | 55.22347 | 23.21812 | 34085 ft | 407 kts | 190° |
| 2026-05-07 22:14 | 55.16683 | 23.20821 | 34098 ft | 413 kts | 190° |
| 2026-05-07 22:14 | 55.10965 | 23.19799 | 34092 ft | 419 kts | 189° |
| 2026-05-07 22:15 | 55.05132 | 23.18760 | 34091 ft | 421 kts | 189° |
| 2026-05-07 22:15 | 54.99304 | 23.17743 | 34089 ft | 421 kts | 189° |
| 2026-05-07 22:16 | 54.93523 | 23.16742 | 34088 ft | 421 kts | 189° |
| 2026-05-07 22:16 | 54.87680 | 23.15715 | 34079 ft | 421 kts | 189° |
| 2026-05-07 22:17 | 54.81849 | 23.14692 | 34081 ft | 421 kts | 189° |
| 2026-05-07 22:17 | 54.76016 | 23.13676 | 34084 ft | 421 kts | 189° |
| 2026-05-07 22:18 | 54.67260 | 23.12173 | 34089 ft | 422 kts | 189° |
| 2026-05-07 22:19 | 54.61420 | 23.11166 | 34090 ft | 422 kts | 189° |
| 2026-05-07 22:19 | 54.55572 | 23.10160 | 34088 ft | 422 kts | 189° |
| 2026-05-07 22:20 | 54.49831 | 23.08343 | 34092 ft | 419 kts | 195° |
| 2026-05-07 22:20 | 54.44163 | 23.06046 | 34073 ft | 419 kts | 196° |
| 2026-05-07 22:21 | 54.38491 | 23.03738 | 34066 ft | 419 kts | 196° |
| 2026-05-07 22:21 | 54.32825 | 23.01441 | 34072 ft | 418 kts | 196° |
| 2026-05-07 22:22 | 54.28082 | 22.99538 | 34073 ft | 418 kts | 196° |
| 2026-05-07 22:22 | 54.22421 | 22.97285 | 34075 ft | 417 kts | 196° |
| 2026-05-07 22:23 | 54.16802 | 22.95057 | 34073 ft | 417 kts | 196° |
| 2026-05-07 22:23 | 54.11152 | 22.92808 | 34074 ft | 417 kts | 196° |
| 2026-05-07 22:24 | 54.05495 | 22.90559 | 34073 ft | 417 kts | 196° |
| 2026-05-07 22:24 | 53.99843 | 22.88316 | 34077 ft | 417 kts | 196° |
| 2026-05-07 22:25 | 53.94193 | 22.86083 | 34075 ft | 417 kts | 196° |
| 2026-05-07 22:25 | 53.88538 | 22.83868 | 34077 ft | 417 kts | 195° |
| 2026-05-07 22:26 | 53.82888 | 22.81655 | 34075 ft | 417 kts | 195° |
| 2026-05-07 22:26 | 53.77242 | 22.79446 | 34073 ft | 417 kts | 195° |
| 2026-05-07 22:27 | 53.71589 | 22.77242 | 34073 ft | 417 kts | 195° |
| 2026-05-07 22:27 | 53.65947 | 22.75046 | 34069 ft | 416 kts | 195° |
| 2026-05-07 22:28 | 53.60302 | 22.72855 | 34068 ft | 416 kts | 195° |
| 2026-05-07 22:28 | 53.54653 | 22.70668 | 34064 ft | 416 kts | 195° |
| 2026-05-07 22:29 | 53.49006 | 22.68494 | 34062 ft | 416 kts | 195° |
| 2026-05-07 22:29 | 53.43359 | 22.66325 | 34062 ft | 416 kts | 195° |
| 2026-05-07 22:30 | 53.37712 | 22.64155 | 34057 ft | 416 kts | 195° |
| 2026-05-07 22:30 | 53.32062 | 22.61992 | 34061 ft | 417 kts | 195° |
| 2026-05-07 22:31 | 53.26327 | 22.60553 | 34035 ft | 421 kts | 182° |
| 2026-05-07 22:31 | 53.20523 | 22.62453 | 34040 ft | 432 kts | 166° |
| 2026-05-07 22:32 | 53.14832 | 22.65669 | 34038 ft | 432 kts | 167° |
| 2026-05-07 22:32 | 53.09128 | 22.68865 | 34039 ft | 432 kts | 167° |
| 2026-05-07 22:33 | 53.03429 | 22.72041 | 34042 ft | 432 kts | 166° |
| 2026-05-07 22:33 | 52.97732 | 22.75205 | 34047 ft | 432 kts | 166° |
| 2026-05-07 22:34 | 52.92029 | 22.78371 | 34047 ft | 432 kts | 166° |
| 2026-05-07 22:34 | 52.86329 | 22.81520 | 34017 ft | 431 kts | 166° |
| 2026-05-07 22:35 | 52.80679 | 22.84630 | 34040 ft | 431 kts | 166° |
| 2026-05-07 22:35 | 52.74998 | 22.87752 | 34057 ft | 430 kts | 166° |
| 2026-05-07 22:36 | 52.69323 | 22.90866 | 34054 ft | 429 kts | 166° |
| 2026-05-07 22:36 | 52.63659 | 22.93960 | 34052 ft | 429 kts | 166° |
| 2026-05-07 22:37 | 52.57988 | 22.97054 | 34049 ft | 429 kts | 166° |
| 2026-05-07 22:37 | 52.52334 | 23.00147 | 34033 ft | 428 kts | 166° |
| 2026-05-07 22:38 | 52.46682 | 23.03215 | 34020 ft | 427 kts | 167° |
| 2026-05-07 22:38 | 52.41037 | 23.06270 | 34029 ft | 426 kts | 167° |
| 2026-05-07 22:39 | 52.35408 | 23.09302 | 34032 ft | 426 kts | 167° |
| 2026-05-07 22:39 | 52.29782 | 23.12330 | 34032 ft | 425 kts | 167° |
| 2026-05-07 22:40 | 52.24160 | 23.15345 | 34026 ft | 425 kts | 167° |
| 2026-05-07 22:40 | 52.18545 | 23.18356 | 34028 ft | 425 kts | 167° |
| 2026-05-07 22:41 | 52.12935 | 23.21353 | 34029 ft | 424 kts | 167° |
| 2026-05-07 22:41 | 52.07326 | 23.24339 | 33985 ft | 424 kts | 167° |
| 2026-05-07 22:42 | 52.01710 | 23.27311 | 33988 ft | 425 kts | 167° |
| 2026-05-07 22:42 | 51.96081 | 23.30298 | 33995 ft | 426 kts | 167° |
| 2026-05-07 22:43 | 51.90449 | 23.33279 | 33999 ft | 426 kts | 167° |
| 2026-05-07 22:43 | 51.84813 | 23.36248 | 34014 ft | 426 kts | 167° |
| 2026-05-07 22:44 | 51.79182 | 23.39205 | 34014 ft | 425 kts | 167° |
| 2026-05-07 22:44 | 51.73561 | 23.42161 | 33979 ft | 425 kts | 167° |
| 2026-05-07 22:45 | 51.67921 | 23.45110 | 33979 ft | 427 kts | 167° |
| 2026-05-07 22:45 | 51.62312 | 23.48027 | 33972 ft | 428 kts | 167° |
| 2026-05-07 22:46 | 51.56635 | 23.50981 | 33981 ft | 429 kts | 167° |
| 2026-05-07 22:46 | 51.50955 | 23.53939 | 33991 ft | 429 kts | 167° |
| 2026-05-07 22:47 | 51.45269 | 23.56882 | 33993 ft | 429 kts | 167° |
| 2026-05-07 22:47 | 51.39576 | 23.59809 | 33999 ft | 430 kts | 167° |
| 2026-05-07 22:48 | 51.34069 | 23.63604 | 33964 ft | 440 kts | 150° |
| 2026-05-07 22:48 | 51.31746 | 23.66865 | 33966 ft | 450 kts | 137° |
| 2026-05-07 22:48 | 51.29913 | 23.70978 | 33992 ft | 460 kts | 123° |
| 2026-05-07 22:48 | 51.28689 | 23.75735 | 33992 ft | 469 kts | 110° |
| 2026-05-07 22:49 | 51.27929 | 23.80829 | 33988 ft | 472 kts | 108° |
| 2026-05-07 22:49 | 51.26461 | 23.91021 | 33967 ft | 472 kts | 108° |
| 2026-05-07 22:50 | 51.24979 | 24.01254 | 33964 ft | 473 kts | 109° |
| 2026-05-07 22:50 | 51.23467 | 24.11481 | 33965 ft | 474 kts | 109° |
| 2026-05-07 22:51 | 51.21956 | 24.21669 | 34409 ft | 467 kts | 109° |
| 2026-05-07 22:51 | 51.21212 | 24.26705 | 34685 ft | 464 kts | 109° |
| 2026-05-07 22:51 | 51.20466 | 24.31717 | 34871 ft | 463 kts | 109° |
| 2026-05-07 22:51 | 51.19717 | 24.36718 | 34979 ft | 465 kts | 109° |
| 2026-05-07 22:52 | 51.18959 | 24.41740 | 34989 ft | 468 kts | 109° |
| 2026-05-07 22:52 | 51.17414 | 24.51881 | 34995 ft | 472 kts | 108° |
| 2026-05-07 22:53 | 51.15873 | 24.62055 | 34982 ft | 472 kts | 108° |
| 2026-05-07 22:53 | 51.14325 | 24.72219 | 34985 ft | 472 kts | 108° |
| 2026-05-07 22:54 | 51.12789 | 24.82196 | 34985 ft | 472 kts | 108° |
| 2026-05-07 22:54 | 51.11211 | 24.92387 | 34997 ft | 472 kts | 108° |
| 2026-05-07 22:55 | 51.09635 | 25.02522 | 34972 ft | 472 kts | 108° |
| 2026-05-07 22:55 | 51.08048 | 25.12664 | 34974 ft | 473 kts | 108° |
| 2026-05-07 22:56 | 51.06448 | 25.22799 | 34985 ft | 473 kts | 108° |
| 2026-05-07 22:56 | 51.04838 | 25.32931 | 34985 ft | 473 kts | 108° |
| 2026-05-07 22:57 | 51.03223 | 25.43060 | 34970 ft | 473 kts | 108° |
| 2026-05-07 22:57 | 51.01593 | 25.53172 | 34976 ft | 473 kts | 108° |
| 2026-05-07 22:58 | 50.99960 | 25.63282 | 34988 ft | 473 kts | 108° |
| 2026-05-07 22:58 | 50.98320 | 25.73376 | 34992 ft | 473 kts | 108° |
| 2026-05-07 22:59 | 50.96664 | 25.83480 | 34994 ft | 473 kts | 108° |
| 2026-05-07 22:59 | 50.95004 | 25.93556 | 34978 ft | 474 kts | 109° |
| 2026-05-07 23:00 | 50.93334 | 26.03666 | 34986 ft | 474 kts | 109° |
| 2026-05-07 23:00 | 50.91648 | 26.13790 | 34994 ft | 475 kts | 109° |
| 2026-05-07 23:01 | 50.89955 | 26.23900 | 35000 ft | 475 kts | 109° |
| 2026-05-07 23:01 | 50.88252 | 26.34013 | 34982 ft | 475 kts | 109° |
| 2026-05-07 23:02 | 50.86536 | 26.44126 | 34990 ft | 475 kts | 109° |
| 2026-05-07 23:02 | 50.84811 | 26.54224 | 34994 ft | 476 kts | 109° |
| 2026-05-07 23:03 | 50.83079 | 26.64327 | 34999 ft | 476 kts | 109° |
| 2026-05-07 23:03 | 50.81336 | 26.74428 | 34984 ft | 476 kts | 109° |
| 2026-05-07 23:04 | 50.79588 | 26.84527 | 34991 ft | 476 kts | 108° |
| 2026-05-07 23:04 | 50.77832 | 26.94614 | 34998 ft | 476 kts | 109° |
| 2026-05-07 23:05 | 50.76059 | 27.04700 | 35009 ft | 476 kts | 109° |
| 2026-05-07 23:05 | 50.74280 | 27.14770 | 35009 ft | 476 kts | 109° |
| 2026-05-07 23:06 | 50.72503 | 27.24838 | 34994 ft | 476 kts | 108° |
| 2026-05-07 23:06 | 50.70701 | 27.34902 | 34996 ft | 477 kts | 109° |
| 2026-05-07 23:07 | 50.68882 | 27.44969 | 35005 ft | 477 kts | 109° |
| 2026-05-07 23:07 | 50.67361 | 27.53339 | 34999 ft | 478 kts | 109° |
| 2026-05-07 23:08 | 50.65526 | 27.63411 | 34988 ft | 479 kts | 108° |
| 2026-05-07 23:08 | 50.63683 | 27.73483 | 34987 ft | 480 kts | 108° |
| 2026-05-07 23:09 | 50.61828 | 27.83591 | 34989 ft | 481 kts | 108° |
| 2026-05-07 23:09 | 50.59962 | 27.93705 | 35000 ft | 481 kts | 109° |
| 2026-05-07 23:10 | 50.58078 | 28.03802 | 35007 ft | 481 kts | 109° |
| 2026-05-07 23:10 | 50.56189 | 28.13899 | 34999 ft | 482 kts | 108° |
| 2026-05-07 23:11 | 50.54288 | 28.24010 | 35004 ft | 482 kts | 108° |
| 2026-05-07 23:11 | 50.52376 | 28.34116 | 35012 ft | 482 kts | 108° |
| 2026-05-07 23:12 | 50.50448 | 28.44212 | 35019 ft | 483 kts | 108° |
| 2026-05-07 23:12 | 50.48524 | 28.54285 | 35011 ft | 477 kts | 109° |
| 2026-05-07 23:13 | 50.46721 | 28.64138 | 35013 ft | 471 kts | 103° |
| 2026-05-07 23:13 | 50.46257 | 28.69215 | 34466 ft | 471 kts | 94° |
| 2026-05-07 23:13 | 50.46311 | 28.74424 | 33650 ft | 473 kts | 84° |
| 2026-05-07 23:13 | 50.46849 | 28.79517 | 32770 ft | 475 kts | 79° |
| 2026-05-07 23:14 | 50.47477 | 28.84545 | 31906 ft | 476 kts | 80° |
| 2026-05-07 23:14 | 50.48089 | 28.89649 | 31047 ft | 477 kts | 81° |
| 2026-05-07 23:14 | 50.48683 | 28.94779 | 30211 ft | 477 kts | 81° |
| 2026-05-07 23:14 | 50.49276 | 28.99978 | 29220 ft | 478 kts | 81° |
| 2026-05-07 23:15 | 50.49853 | 29.05052 | 28221 ft | 479 kts | 81° |
| 2026-05-07 23:15 | 50.50440 | 29.10195 | 27197 ft | 480 kts | 81° |
| 2026-05-07 23:15 | 50.51032 | 29.15377 | 26146 ft | 482 kts | 81° |
| 2026-05-07 23:15 | 50.51626 | 29.20561 | 25122 ft | 484 kts | 81° |
| 2026-05-07 23:16 | 50.52223 | 29.25774 | 24396 ft | 486 kts | 81° |
| 2026-05-07 23:16 | 50.52820 | 29.31011 | 23702 ft | 488 kts | 81° |
| 2026-05-07 23:16 | 50.53419 | 29.36271 | 22899 ft | 490 kts | 81° |
| 2026-05-07 23:16 | 50.54018 | 29.41547 | 21848 ft | 489 kts | 82° |
| 2026-05-07 23:17 | 50.54612 | 29.46810 | 20757 ft | 486 kts | 82° |
| 2026-05-07 23:17 | 50.55190 | 29.51954 | 19792 ft | 471 kts | 82° |
| 2026-05-07 23:17 | 50.55748 | 29.56982 | 18652 ft | 463 kts | 82° |
| 2026-05-07 23:17 | 50.56291 | 29.61926 | 17404 ft | 456 kts | 82° |
| 2026-05-07 23:18 | 50.56826 | 29.66803 | 16143 ft | 449 kts | 83° |
| 2026-05-07 23:18 | 50.57352 | 29.71597 | 14952 ft | 442 kts | 83° |
| 2026-05-07 23:18 | 50.57868 | 29.76318 | 13774 ft | 434 kts | 83° |
| 2026-05-07 23:18 | 50.58372 | 29.80954 | 12521 ft | 426 kts | 83° |
| 2026-05-07 23:19 | 50.58864 | 29.85475 | 11726 ft | 408 kts | 82° |
| 2026-05-07 23:19 | 50.59329 | 29.89714 | 11520 ft | 378 kts | 82° |
| 2026-05-07 23:19 | 50.59758 | 29.93643 | 11326 ft | 353 kts | 82° |
| 2026-05-07 23:19 | 50.60157 | 29.97316 | 11181 ft | 328 kts | 82° |
| 2026-05-07 23:20 | 50.60526 | 30.00738 | 11045 ft | 307 kts | 83° |
| 2026-05-07 23:20 | 50.60877 | 30.03993 | 10660 ft | 297 kts | 82° |
| 2026-05-07 23:20 | 50.61211 | 30.07164 | 10207 ft | 292 kts | 83° |
| 2026-05-07 23:20 | 50.61533 | 30.10299 | 9870 ft | 288 kts | 83° |
| 2026-05-07 23:21 | 50.61849 | 30.13398 | 9479 ft | 285 kts | 83° |
| 2026-05-07 23:21 | 50.62160 | 30.16474 | 9050 ft | 284 kts | 82° |
| 2026-05-07 23:21 | 50.62468 | 30.19534 | 8614 ft | 283 kts | 83° |
| 2026-05-07 23:21 | 50.62776 | 30.22579 | 8184 ft | 281 kts | 82° |
| 2026-05-07 23:22 | 50.63081 | 30.25617 | 7751 ft | 280 kts | 82° |
| 2026-05-07 23:22 | 50.63362 | 30.28634 | 7371 ft | 276 kts | 83° |
| 2026-05-07 23:22 | 50.63640 | 30.31618 | 6968 ft | 275 kts | 83° |
| 2026-05-07 23:22 | 50.63917 | 30.34585 | 6559 ft | 273 kts | 83° |
| 2026-05-07 23:23 | 50.64189 | 30.37545 | 6122 ft | 273 kts | 83° |
| 2026-05-07 23:23 | 50.64459 | 30.40501 | 5647 ft | 273 kts | 83° |
| 2026-05-07 23:23 | 50.64737 | 30.43476 | 5150 ft | 275 kts | 83° |
| 2026-05-07 23:23 | 50.65016 | 30.46504 | 4712 ft | 275 kts | 83° |
| 2026-05-07 23:24 | 50.65285 | 30.49453 | 4272 ft | 275 kts | 83° |
| 2026-05-07 23:24 | 50.65562 | 30.52432 | 4010 ft | 275 kts | 83° |
| 2026-05-07 23:24 | 50.65842 | 30.55379 | 3759 ft | 268 kts | 83° |
| 2026-05-07 23:24 | 50.66121 | 30.58244 | 3515 ft | 262 kts | 83° |
| 2026-05-07 23:25 | 50.66407 | 30.61064 | 3266 ft | 257 kts | 83° |
| 2026-05-07 23:25 | 50.66699 | 30.63814 | 3039 ft | 252 kts | 82° |
| 2026-05-07 23:25 | 50.66990 | 30.66494 | 2960 ft | 247 kts | 83° |
| 2026-05-07 23:25 | 50.67283 | 30.69157 | 2990 ft | 247 kts | 83° |
| 2026-05-07 23:26 | 50.67576 | 30.71823 | 2958 ft | 247 kts | 85° |
| 2026-05-07 23:26 | 50.67661 | 30.74515 | 2975 ft | 245 kts | 93° |
| 2026-05-07 23:26 | 50.67651 | 30.77201 | 2974 ft | 244 kts | 94° |
| 2026-05-07 23:26 | 50.67630 | 30.79874 | 2972 ft | 244 kts | 94° |
| 2026-05-07 23:27 | 50.67500 | 30.85209 | 2953 ft | 241 kts | 107° |
| 2026-05-07 23:27 | 50.66801 | 30.87543 | 2969 ft | 233 kts | 132° |
| 2026-05-07 23:27 | 50.65586 | 30.89129 | 2970 ft | 225 kts | 157° |
| 2026-05-07 23:28 | 50.64128 | 30.89977 | 2971 ft | 222 kts | 169° |
| 2026-05-07 23:28 | 50.62614 | 30.90429 | 2976 ft | 221 kts | 175° |
| 2026-05-07 23:28 | 50.61099 | 30.90748 | 2972 ft | 215 kts | 176° |
| 2026-05-07 23:28 | 50.59681 | 30.91033 | 2959 ft | 196 kts | 176° |
| 2026-05-07 23:29 | 50.58379 | 30.91304 | 2984 ft | 184 kts | 176° |
| 2026-05-07 23:29 | 50.57128 | 30.91573 | 2977 ft | 180 kts | 176° |
| 2026-05-07 23:29 | 50.55894 | 30.91842 | 2974 ft | 179 kts | 177° |
| 2026-05-07 23:29 | 50.54664 | 30.91863 | 2975 ft | 177 kts | 183° |
| 2026-05-07 23:30 | 50.53433 | 30.91948 | 2975 ft | 176 kts | 184° |
| 2026-05-07 23:30 | 50.52213 | 30.91844 | 2977 ft | 175 kts | 187° |
| 2026-05-07 23:30 | 50.50996 | 30.91683 | 2976 ft | 175 kts | 188° |
| 2026-05-07 23:30 | 50.49779 | 30.91536 | 2976 ft | 176 kts | 187° |
| 2026-05-07 23:31 | 50.48553 | 30.91426 | 2977 ft | 177 kts | 186° |
| 2026-05-07 23:31 | 50.47314 | 30.91322 | 2791 ft | 178 kts | 186° |
| 2026-05-07 23:31 | 50.46101 | 30.91222 | 2570 ft | 170 kts | 187° |
| 2026-05-07 23:31 | 50.44943 | 30.91125 | 2360 ft | 163 kts | 187° |
| 2026-05-07 23:32 | 50.43736 | 30.91014 | 2154 ft | 182 kts | 187° |
| 2026-05-07 23:32 | 50.42481 | 30.90905 | 1898 ft | 172 kts | 187° |
| 2026-05-07 23:32 | 50.41348 | 30.90869 | 1671 ft | 157 kts | 181° |
| 2026-05-07 23:32 | 50.40304 | 30.90945 | 1351 ft | 146 kts | 185° |
| 2026-05-07 23:33 | 50.39307 | 30.90889 | 1084 ft | 141 kts | 185° |
| 2026-05-07 23:33 | 50.38338 | 30.90804 | 889 ft | 138 kts | 182° |
| 2026-05-07 23:33 | 50.37384 | 30.90742 | 720 ft | 139 kts | 183° |
| 2026-05-07 23:33 | 50.36438 | 30.90679 | 568 ft | 138 kts | 183° |
| 2026-05-07 23:34 | 50.35491 | 30.90605 | 418 ft | 130 kts | 181° |
| 2026-05-07 23:34 | 50.34721 | 30.90547 | 417 ft | 82 kts | 183° |
| 2026-05-07 23:34 | 50.34335 | 30.90517 | 412 ft | 37 kts | 189° |
| 2026-05-07 23:34 | 50.34119 | 30.90374 | 420 ft | 24 kts | 213° |
| 2026-05-07 23:35 | 50.34033 | 30.90233 | 412 ft | 15 kts | 272° |
| 2026-05-07 23:35 | 50.34104 | 30.90180 | 409 ft | 11 kts | 359° |
| 2026-05-07 23:35 | 50.34179 | 30.90184 | 412 ft | 10 kts | 4° |
| 2026-05-07 23:35 | 50.34252 | 30.90191 | 416 ft | 11 kts | 4° |
| 2026-05-07 23:36 | 50.34334 | 30.90196 | 416 ft | 12 kts | 1° |
| 2026-05-07 23:36 | 50.34428 | 30.90203 | 411 ft | 16 kts | 4° |
| 2026-05-07 23:36 | 50.34554 | 30.90213 | 410 ft | 20 kts | 2° |
| 2026-05-07 23:36 | 50.34670 | 30.90221 | 411 ft | 15 kts | 2° |
| 2026-05-07 23:37 | 50.34771 | 30.90229 | 407 ft | 14 kts | 3° |
| 2026-05-07 23:37 | 50.34865 | 30.90236 | 408 ft | 13 kts | 2° |
| 2026-05-07 23:37 | 50.34950 | 30.90242 | 413 ft | 12 kts | 3° |
| 2026-05-07 23:37 | 50.35037 | 30.90248 | 408 ft | 14 kts | 2° |
| 2026-05-07 23:38 | 50.35137 | 30.90254 | 413 ft | 15 kts | 358° |
| 2026-05-07 23:38 | 50.35193 | 30.90145 | 415 ft | 15 kts | 272° |
| 2026-05-07 23:38 | 50.35245 | 30.90023 | 411 ft | 14 kts | 353° |
| 2026-05-07 23:38 | 50.35339 | 30.90028 | 415 ft | 12 kts | 2° |
| 2026-05-07 23:39 | 50.35401 | 30.90005 | 415 ft | 7 kts | 301° |
| 2026-05-07 23:39 | 50.35406 | 30.89930 | 415 ft | 6 kts | 272° |
| 2026-05-07 23:39 | 50.35407 | 30.89900 | 415 ft | 0 kts | 272° |